KSKF/SKF METAR and TAF weather

Enter ICAO airport designator
Station Type Date Time Source
KSKF METAR 2022/01/26 13:56 UTC NOAA

KSKF 261356Z AUTO 06011KT 10SM OVC029 10/06 A3027 RMK AO2 SLP251 T00960060 $


Station Type Date Time Source
KSKF Decoded METAR 2022/01/26 13:56 UTC NOAA

Kelly Air Force Base, TX, United States (KSKF) 29-23N 098-35W
Jan 26, 2022 - 08:56 AM EST / 2022.01.26 1356 UTC
Wind: from the ENE (060 degrees) at 13 MPH (11 KT):0
Visibility: 10 mile(s):0
Sky conditions: overcast
Temperature: 49.3 F (9.6 C)
Dew Point: 42.8 F (6.0 C)
Relative Humidity: 78%
Pressure (altimeter): 30.27 in. Hg (1025 hPa)
ob: KSKF 261356Z AUTO 06011KT 10SM OVC029 10/06 A3027 RMK AO2 SLP251 T00960060
cycle: 14

Station Type Date Time Source
KSKF TAF 2022/01/26 10:28 UTC NOAA

TAF KSKF 261000Z 2610/2716 05006KT 8000 BR OVC010 QNH3019INS
BECMG 2615/2616 06009KT 9999 NSW OVC010 QNH3031INS
BECMG 2619/2620 06010G15KT 9999 SCT050 QNH3026INS
BECMG 2700/2701 09006KT 9999 BKN030 QNH3020INS
BECMG 2705/2706 09006KT 9999 BKN050 QNH3022INS TX18/2622Z TN11/2614Z

Example: see airport list